KMQY

Smyrna Airport

Smyrna, Tennessee, USA

KMQY 110856Z AUTO 00000KT 10SM CLR M02/M04 A3018 RMK AO2 SLP214 T10221044 56001

Observed Flight Rules
Dec-11 @ 08:56 UTC (27 minutes ago) Visual Flight Rules
Wind Visibility Clouds
Calm 10 miles
  • Clear skies
Temperatures Readings
Current -2°C / 28°F
Dewpoint -4°C / 25°F
Humidity 86%
Altimeter 30.18" Hg
Pressure 1021.4 hPa
Elevation 166
Observed Flight Rules
Dec-11 @ 08:56 UTC
(27 minutes ago)
VFR
Wind Visibility
Calm 10 miles
Clouds
  • Clear skies
Temperature Dewpoint
-2°C / 28°F -4°C / 25°F
Humidity Altimeter Pressure
86% 30.18" Hg 1021.4 hPa